Time;durP1;ratioP1;P1;durP2;ratioP2;P2;SDS_P1;SDS_P2;PMS_P1;PMS_P2;Temp;Humidity;BMP_temperature;BMP_pressure;BME280_temperature;BME280_humidity;BME280_pressure;Samples;Min_cycle;Max_cycle;Signal;HPM_P1;HPM_P2
2023/12/13 00:01:55;;;;;;;0.43;0.38;;;;;;;27.99;81.91;99559.81;10443067;28;20136;-85
2023/12/13 00:06:56;;;;;;;0.10;0.10;;;;;;;27.76;80.89;99564.00;10444860;28;20071;-85
2023/12/13 00:11:58;;;;;;;0.32;0.15;;;;;;;27.99;80.81;99561.59;10460399;28;20399;-85
2023/12/13 00:17:00;;;;;;;0.52;0.47;;;;;;;27.97;80.91;99559.06;10448953;28;20040;-85
2023/12/13 00:22:03;;;;;;;0.10;0.10;;;;;;;28.39;79.97;99558.00;10445140;28;20049;-85
2023/12/13 00:27:05;;;;;;;0.90;0.20;;;;;;;28.62;80.22;99553.75;10428230;28;20048;-85
2023/12/13 00:32:06;;;;;;;0.38;0.10;;;;;;;30.12;76.00;99556.00;10456870;28;20037;-85
2023/12/13 00:37:08;;;;;;;0.25;0.20;;;;;;;29.16;76.51;99564.94;10463347;28;20044;-85
2023/12/13 00:42:12;;;;;;;1.00;0.47;;;;;;;28.51;76.90;99567.75;10465130;28;20060;-85
2023/12/13 00:47:14;;;;;;;0.65;0.30;;;;;;;28.41;78.61;99559.59;10462651;28;20044;-85
2023/12/13 00:52:16;;;;;;;0.73;0.73;;;;;;;30.74;73.41;99555.66;10472111;28;20052;-85
2023/12/13 00:57:18;;;;;;;0.15;0.15;;;;;;;29.16;77.74;99552.53;10450943;28;20044;-84
2023/12/13 01:02:20;;;;;;;0.13;0.10;;;;;;;28.16;79.73;99553.38;10427368;28;20653;-85
2023/12/13 01:07:22;;;;;;;0.28;0.10;;;;;;;29.46;77.04;99559.19;10454615;28;20044;-85
2023/12/13 01:12:24;;;;;;;0.15;0.15;;;;;;;29.50;77.25;99565.13;10444056;28;20045;-85
2023/12/13 01:17:25;;;;;;;1.63;0.57;;;;;;;27.60;78.92;99568.63;10438244;28;20048;-85
2023/12/13 01:22:27;;;;;;;0.65;0.55;;;;;;;28.17;78.89;99560.38;10447349;28;20053;-85
2023/12/13 01:27:30;;;;;;;0.20;0.20;;;;;;;27.49;80.37;99564.91;10441441;28;20048;-84
2023/12/13 01:32:32;;;;;;;1.77;0.47;;;;;;;28.62;80.25;99564.34;10440779;28;20045;-85
2023/12/13 01:37:34;;;;;;;1.02;0.70;;;;;;;29.41;80.41;99562.19;10454080;28;20064;-84
2023/12/13 01:42:38;;;;;;;0.38;0.20;;;;;;;28.42;80.97;99563.94;10468832;28;20067;-84
2023/12/13 01:47:40;;;;;;;0.25;0.17;;;;;;;27.47;83.69;99565.97;10440609;28;20529;-84
2023/12/13 01:52:42;;;;;;;0.28;0.28;;;;;;;26.78;81.96;99568.59;10427672;28;20087;-84
2023/12/13 01:57:44;;;;;;;3.50;0.40;;;;;;;26.67;84.64;99575.34;10445764;28;20091;-84
2023/12/13 02:02:47;;;;;;;0.20;0.20;;;;;;;26.50;81.77;99576.41;10443959;28;20573;-84
2023/12/13 02:07:48;;;;;;;0.10;0.10;;;;;;;26.05;87.50;99572.97;10430808;28;20373;-83
2023/12/13 02:12:51;;;;;;;0.10;0.10;;;;;;;28.24;79.42;99570.53;10439783;28;20094;-84
2023/12/13 02:17:53;;;;;;;1.08;0.13;;;;;;;26.40;85.77;99576.13;10443953;28;20087;-83
2023/12/13 02:22:55;;;;;;;0.08;0.08;;;;;;;28.85;80.61;99567.19;10461407;28;20128;-84
2023/12/13 02:27:57;;;;;;;0.65;0.55;;;;;;;28.96;80.44;99561.94;10428537;28;20139;-84
2023/12/13 02:32:59;;;;;;;0.15;0.15;;;;;;;27.14;80.79;99565.41;10450036;28;20493;-84
2023/12/13 02:38:01;;;;;;;0.00;0.00;;;;;;;29.23;77.81;99558.22;10451820;28;20098;-84
2023/12/13 02:43:02;;;;;;;2.45;1.23;;;;;;;26.74;81.24;99557.34;10450477;28;20052;-84
2023/12/13 02:48:04;;;;;;;0.00;0.00;;;;;;;27.24;79.66;99561.19;10439730;28;20075;-84
2023/12/13 02:53:06;;;;;;;0.00;0.00;;;;;;;28.02;78.72;99559.56;10448861;28;20055;-84
2023/12/13 02:58:08;;;;;;;0.80;0.57;;;;;;;27.67;79.70;99556.69;10437431;28;20563;-84
2023/12/13 03:03:10;;;;;;;0.00;0.00;;;;;;;26.51;81.21;99551.72;10459111;28;20039;-84
2023/12/13 03:08:15;;;;;;;0.00;0.00;;;;;;;29.72;76.51;99543.97;10443463;28;20091;-84
2023/12/13 03:13:17;;;;;;;0.00;0.00;;;;;;;28.43;78.69;99549.75;10430242;28;20084;-84
2023/12/13 03:18:19;;;;;;;0.10;0.10;;;;;;;26.99;78.27;99550.53;10441038;28;20037;-84
2023/12/13 03:23:21;;;;;;;1.65;1.55;;;;;;;26.68;79.22;99541.88;10452470;28;20044;-84
2023/12/13 03:28:23;;;;;;;0.35;0.17;;;;;;;28.82;76.35;99544.38;10448466;28;20377;-84
2023/12/13 03:33:24;;;;;;;0.00;0.00;;;;;;;27.52;76.79;99548.81;10436332;28;20045;-84
2023/12/13 03:38:26;;;;;;;0.32;0.32;;;;;;;27.07;81.38;99530.59;10424207;28;20049;-83
2023/12/13 03:43:28;;;;;;;0.38;0.20;;;;;;;27.14;82.65;99528.41;10446168;28;20056;-84
2023/12/13 03:48:30;;;;;;;0.00;0.00;;;;;;;26.79;83.20;99523.56;10429607;28;20048;-84
2023/12/13 03:53:32;;;;;;;0.52;0.40;;;;;;;27.70;83.09;99530.03;10457330;28;20059;-84
2023/12/13 03:58:34;;;;;;;0.00;0.00;;;;;;;26.27;84.00;99528.50;10453111;28;20037;-83
2023/12/13 04:03:35;;;;;;;0.22;0.10;;;;;;;27.28;82.97;99524.00;10454261;28;20492;-84
2023/12/13 04:08:37;;;;;;;0.20;0.20;;;;;;;27.41;82.64;99524.88;10447150;28;20056;-84
2023/12/13 04:13:39;;;;;;;0.00;0.00;;;;;;;25.08;86.22;99529.31;10445905;28;20048;-84
2023/12/13 04:18:41;;;;;;;0.30;0.20;;;;;;;27.24;82.05;99526.81;10455438;28;20404;-84
2023/12/13 04:23:43;;;;;;;0.10;0.05;;;;;;;24.81;84.48;99532.56;10441208;28;20044;-84
2023/12/13 04:28:44;;;;;;;0.00;0.00;;;;;;;26.64;84.01;99528.03;10455801;28;20487;-85
2023/12/13 04:33:46;;;;;;;0.13;0.00;;;;;;;27.72;82.20;99522.84;10453035;28;20048;-85
2023/12/13 04:38:48;;;;;;;0.10;0.10;;;;;;;27.97;81.51;99523.78;10455451;28;20037;-85
2023/12/13 04:43:50;;;;;;;0.08;0.03;;;;;;;26.35;82.84;99522.78;10426094;28;20488;-85
2023/12/13 04:48:52;;;;;;;0.20;0.10;;;;;;;27.42;81.67;99526.59;10450369;28;20043;-86
2023/12/13 04:53:54;;;;;;;0.10;0.10;;;;;;;28.86;78.17;99529.97;10445969;28;20049;-85
2023/12/13 04:58:55;;;;;;;0.30;0.20;;;;;;;28.11;78.34;99529.00;10449863;28;20079;-85
2023/12/13 05:03:57;;;;;;;1.65;0.52;;;;;;;27.45;82.95;99523.72;10462382;28;20515;-86
2023/12/13 05:08:59;;;;;;;0.35;0.35;;;;;;;30.11;78.13;99521.59;10430350;28;20048;-85
2023/12/13 05:14:01;;;;;;;0.10;0.10;;;;;;;31.22;76.24;99510.09;10470505;28;20075;-86
2023/12/13 05:19:03;;;;;;;0.00;0.00;;;;;;;28.65;78.48;99511.13;10466990;28;20074;-86
2023/12/13 05:24:05;;;;;;;0.20;0.17;;;;;;;29.83;78.19;99513.06;10459840;28;20131;-85
2023/12/13 05:29:07;;;;;;;0.75;0.10;;;;;;;32.01;73.03;99502.63;10439145;28;20512;-85
2023/12/13 05:34:08;;;;;;;0.00;0.00;;;;;;;30.02;76.56;99502.78;10460934;28;20480;-85
2023/12/13 05:39:10;;;;;;;0.57;0.30;;;;;;;32.23;72.81;99507.78;10453904;28;20048;-85
2023/12/13 05:44:12;;;;;;;0.17;0.17;;;;;;;30.97;73.14;99514.75;10464936;28;20048;-85
2023/12/13 05:49:15;;;;;;;0.10;0.10;;;;;;;32.18;69.60;99515.31;10448991;28;20162;-85
2023/12/13 05:54:17;;;;;;;0.20;0.17;;;;;;;33.52;69.01;99521.22;10425179;28;20140;-85
2023/12/13 05:59:18;;;;;;;0.98;0.73;;;;;;;30.77;72.08;99523.50;10471105;28;20132;-85
2023/12/13 06:04:20;;;;;;;0.65;0.20;;;;;;;32.11;71.25;99524.84;10440787;28;20049;-85
2023/12/13 06:09:22;;;;;;;0.20;0.20;;;;;;;31.94;71.03;99527.13;10456532;28;20041;-85
2023/12/13 06:14:24;;;;;;;0.15;0.10;;;;;;;33.19;68.94;99519.81;10441936;28;20547;-85
2023/12/13 06:19:29;;;;;;;0.00;0.00;;;;;;;31.78;69.36;99540.06;10460706;28;20083;-85
2023/12/13 06:24:31;;;;;;;0.45;0.22;;;;;;;33.02;68.43;99527.50;10445555;28;20055;-86
2023/12/13 06:29:33;;;;;;;0.10;0.10;;;;;;;31.90;69.46;99538.16;10467379;28;20377;-85
2023/12/13 06:34:34;;;;;;;0.00;0.00;;;;;;;33.16;68.66;99528.94;10465220;28;20568;-85
2023/12/13 06:39:37;;;;;;;0.00;0.00;;;;;;;30.53;71.83;99533.31;10472155;28;20048;-85
2023/12/13 06:44:40;;;;;;;0.25;0.25;;;;;;;31.55;70.12;99545.47;10439512;28;20211;-84
2023/12/13 06:49:42;;;;;;;0.70;0.65;;;;;;;30.82;70.63;99539.91;10445120;28;20416;-85
2023/12/13 06:54:44;;;;;;;1.13;0.45;;;;;;;32.50;69.48;99535.69;10439328;28;20052;-85
2023/12/13 06:59:46;;;;;;;0.55;0.38;;;;;;;31.25;69.40;99538.25;10457312;28;20036;-85
2023/12/13 07:04:48;;;;;;;0.47;0.25;;;;;;;30.33;71.05;99542.88;10446087;28;20045;-85
2023/12/13 07:09:50;;;;;;;0.68;0.22;;;;;;;31.05;71.74;99547.84;10453464;28;20148;-85
2023/12/13 07:14:52;;;;;;;2.05;1.25;;;;;;;30.87;71.80;99545.69;10442123;28;20416;-85
2023/12/13 07:19:54;;;;;;;0.20;0.17;;;;;;;30.76;71.42;99549.22;10454890;28;20068;-85
2023/12/13 07:24:56;;;;;;;0.28;0.28;;;;;;;27.92;76.19;99555.88;10452527;28;20120;-85
2023/12/13 07:29:58;;;;;;;0.65;0.40;;;;;;;29.69;74.95;99552.16;10456316;28;20139;-85
2023/12/13 07:35:00;;;;;;;0.70;0.40;;;;;;;29.09;75.37;99551.28;10440341;28;20053;-87
2023/12/13 07:40:06;;;;;;;1.67;1.33;;;;;;;28.33;77.05;99554.00;10464840;28;20503;-86
2023/12/13 07:45:10;;;;;;;0.10;0.10;;;;;;;30.21;72.48;99557.94;10483998;28;20067;-86
2023/12/13 07:50:12;;;;;;;0.00;0.00;;;;;;;31.55;71.75;99566.78;10441120;28;20041;-85
2023/12/13 07:55:18;;;;;;;0.10;0.10;;;;;;;31.62;71.41;99569.78;10439792;28;20045;-86
2023/12/13 08:00:20;;;;;;;0.10;0.10;;;;;;;32.72;69.78;99571.09;10451624;28;20052;-85
2023/12/13 08:05:23;;;;;;;0.65;0.40;;;;;;;32.08;70.52;99573.03;10436549;28;20105;-86
2023/12/13 08:10:24;;;;;;;0.65;0.55;;;;;;;31.89;72.14;99565.78;10440484;28;20549;-86
2023/12/13 08:15:26;;;;;;;0.00;0.00;;;;;;;32.36;70.13;99581.31;10451057;28;20046;-85
2023/12/13 08:20:29;;;;;;;1.85;0.50;;;;;;;32.64;71.17;99573.59;10471523;28;20069;-86
2023/12/13 08:25:31;;;;;;;0.20;0.20;;;;;;;31.15;71.17;99573.59;10447034;28;20099;-84
2023/12/13 08:30:33;;;;;;;0.30;0.20;;;;;;;31.63;71.95;99574.13;10456925;28;20052;-83
2023/12/13 08:35:35;;;;;;;2.45;0.65;;;;;;;31.43;71.32;99578.47;10459767;28;20053;-83
2023/12/13 08:40:36;;;;;;;0.22;0.22;;;;;;;31.06;72.75;99576.97;10461424;28;20041;-82
2023/12/13 08:45:38;;;;;;;0.03;0.03;;;;;;;29.26;76.80;99595.13;10433062;28;20183;-83
2023/12/13 08:50:40;;;;;;;0.10;0.10;;;;;;;29.10;76.13;99588.28;10456902;28;20041;-83
2023/12/13 08:55:42;;;;;;;0.38;0.35;;;;;;;30.51;75.72;99583.09;10431376;28;20053;-83
2023/12/13 09:00:43;;;;;;;0.10;0.10;;;;;;;30.75;73.83;99589.25;10441292;28;20049;-83
2023/12/13 09:05:45;;;;;;;0.52;0.30;;;;;;;30.59;75.48;99587.81;10445676;28;20052;-84
2023/12/13 09:10:47;;;;;;;0.47;0.32;;;;;;;30.19;75.05;99591.75;10449482;28;20128;-84
2023/12/13 09:15:49;;;;;;;0.43;0.35;;;;;;;30.99;74.46;99597.91;10445285;28;20102;-84
2023/12/13 09:20:51;;;;;;;0.00;0.00;;;;;;;28.53;78.32;99602.91;10450453;28;20047;-84
2023/12/13 09:25:53;;;;;;;2.13;0.88;;;;;;;30.46;75.10;99606.47;10436185;28;20093;-84
2023/12/13 09:30:55;;;;;;;0.90;0.40;;;;;;;31.66;74.60;99602.34;10446713;28;20057;-84
2023/12/13 09:35:56;;;;;;;0.85;0.32;;;;;;;29.31;76.60;99614.22;10440927;28;20047;-83
2023/12/13 09:40:58;;;;;;;1.48;0.57;;;;;;;30.15;74.99;99618.66;10424192;28;20037;-84
2023/12/13 09:46:01;;;;;;;0.70;0.52;;;;;;;30.51;76.13;99622.09;10423886;28;20072;-84
2023/12/13 09:51:05;;;;;;;3.25;1.58;;;;;;;29.93;79.31;99616.81;10424756;28;20559;-83
2023/12/13 09:56:10;;;;;;;0.63;0.50;;;;;;;31.62;75.38;99626.50;10447909;28;20048;-84
2023/12/13 10:01:14;;;;;;;1.25;1.00;;;;;;;30.32;76.54;99635.94;10439573;28;20091;-82
2023/12/13 10:06:16;;;;;;;15.30;0.60;;;;;;;31.83;72.96;99644.38;10425970;28;20048;-84
2023/12/13 10:11:18;;;;;;;1.00;0.17;;;;;;;30.72;74.11;99653.31;10430883;28;20041;-83
2023/12/13 10:16:20;;;;;;;0.70;0.43;;;;;;;29.42;76.25;99659.41;10436578;28;20041;-84
2023/12/13 10:21:22;;;;;;;0.28;0.20;;;;;;;30.15;78.69;99650.53;10449116;28;20040;-84
2023/12/13 10:26:24;;;;;;;0.00;0.00;;;;;;;32.73;73.25;99660.75;10456711;28;20381;-83
2023/12/13 10:31:26;;;;;;;0.10;0.10;;;;;;;31.05;75.53;99654.22;10421220;28;20132;-84
2023/12/13 10:36:29;;;;;;;0.22;0.22;;;;;;;31.48;74.44;99656.09;10434016;28;20265;-83
2023/12/13 10:41:32;;;;;;;0.30;0.30;;;;;;;30.73;74.70;99660.28;10438361;28;20091;-83
2023/12/13 10:46:35;;;;;;;0.45;0.30;;;;;;;33.65;72.38;99651.75;10433666;28;20053;-83
2023/12/13 10:51:38;;;;;;;2.08;0.63;;;;;;;33.92;70.29;99657.41;10434357;28;20155;-83
2023/12/13 10:56:41;;;;;;;0.30;0.20;;;;;;;32.74;69.59;99675.78;10441855;28;20041;-83
2023/12/13 11:01:45;;;;;;;0.28;0.28;;;;;;;30.31;74.93;99672.31;10444561;28;20077;-83
2023/12/13 11:06:48;;;;;;;0.43;0.43;;;;;;;30.66;75.32;99668.75;10429729;28;20049;-84
2023/12/13 11:11:49;;;;;;;0.30;0.30;;;;;;;32.96;72.33;99668.59;10424557;28;20067;-83
2023/12/13 11:16:51;;;;;;;0.47;0.15;;;;;;;32.12;73.08;99673.88;10437920;28;20526;-84
2023/12/13 11:21:56;;;;;;;0.00;0.00;;;;;;;29.80;74.99;99677.91;10442031;28;20075;-83
2023/12/13 11:26:58;;;;;;;0.70;0.35;;;;;;;31.08;73.91;99665.47;10446000;28;20049;-84
2023/12/13 11:32:03;;;;;;;0.13;0.13;;;;;;;31.70;73.10;99670.31;10441075;28;20454;-84
2023/12/13 11:37:06;;;;;;;0.65;0.65;;;;;;;31.39;73.79;99683.47;10430658;28;20053;-84
2023/12/13 11:42:10;;;;;;;1.15;0.60;;;;;;;31.44;73.13;99690.09;10420079;28;20068;-85
2023/12/13 11:47:13;;;;;;;1.65;0.25;;;;;;;32.46;71.85;99699.50;10435644;28;20040;-84
2023/12/13 11:52:16;;;;;;;0.30;0.15;;;;;;;32.30;72.85;99688.44;10463589;28;20045;-84
2023/12/13 11:57:19;;;;;;;1.02;0.57;;;;;;;33.75;69.74;99680.28;10428196;28;20095;-84
2023/12/13 12:02:21;;;;;;;0.75;0.47;;;;;;;33.90;67.74;99694.09;10443371;28;20534;-85
2023/12/13 12:07:23;;;;;;;0.68;0.45;;;;;;;31.41;73.00;99698.34;10451395;28;20112;-85
2023/12/13 12:12:25;;;;;;;0.28;0.28;;;;;;;32.74;71.02;99705.09;10447407;28;20123;-85
2023/12/13 12:17:27;;;;;;;0.00;0.00;;;;;;;32.85;71.30;99698.88;10447378;28;20071;-84
2023/12/13 12:22:33;;;;;;;0.20;0.20;;;;;;;36.83;66.00;99706.72;10444939;28;20466;-84
2023/12/13 12:27:36;;;;;;;0.55;0.20;;;;;;;36.41;64.71;99707.50;10448413;28;20753;-84
2023/12/13 12:32:38;;;;;;;0.20;0.13;;;;;;;35.69;63.06;99719.97;10446761;28;20126;-85
2023/12/13 12:37:40;;;;;;;0.20;0.20;;;;;;;32.77;65.80;99728.88;10454050;28;20037;-85
2023/12/13 12:42:45;;;;;;;0.10;0.10;;;;;;;33.45;66.81;99722.97;10447750;28;20106;-85
2023/12/13 12:47:47;;;;;;;0.73;0.55;;;;;;;33.44;68.82;99721.28;10454330;28;20037;-85
2023/12/13 12:52:49;;;;;;;0.13;0.10;;;;;;;35.28;65.54;99716.81;10444589;28;20053;-85
2023/12/13 12:57:51;;;;;;;0.20;0.20;;;;;;;31.78;68.08;99729.09;10448906;28;20106;-85
2023/12/13 13:02:56;;;;;;;0.08;0.08;;;;;;;32.61;67.99;99729.34;10453453;28;20049;-86
2023/12/13 13:07:58;;;;;;;0.00;0.00;;;;;;;31.77;70.88;99727.41;10454601;28;20040;-85
2023/12/13 13:13:02;;;;;;;0.90;0.30;;;;;;;30.08;72.90;99724.53;10452382;28;20045;-85
2023/12/13 13:18:04;;;;;;;0.20;0.20;;;;;;;32.48;70.72;99737.53;10453639;28;20082;-85
2023/12/13 13:23:06;;;;;;;0.20;0.20;;;;;;;30.80;71.74;99735.94;10428884;28;20068;-86
2023/12/13 13:28:07;;;;;;;0.10;0.00;;;;;;;33.24;69.34;99738.22;10447995;28;20080;-85
2023/12/13 13:33:10;;;;;;;0.10;0.10;;;;;;;33.13;68.16;99740.00;10450215;28;20103;-85
2023/12/13 13:38:12;;;;;;;0.45;0.38;;;;;;;35.45;65.14;99749.97;10440755;28;20037;-85
2023/12/13 13:43:14;;;;;;;0.52;0.35;;;;;;;33.38;68.15;99756.53;10425038;28;20049;-85
2023/12/13 13:48:18;;;;;;;0.43;0.32;;;;;;;33.58;67.06;99753.91;10424416;28;20041;-84
2023/12/13 13:53:19;;;;;;;0.13;0.13;;;;;;;35.08;65.22;99754.38;10449078;28;20052;-83
2023/12/13 13:58:21;;;;;;;0.80;0.80;;;;;;;34.15;65.24;99762.97;10452144;28;20127;-84
2023/12/13 14:03:23;;;;;;;0.00;0.00;;;;;;;32.14;66.73;99763.47;10445749;28;20048;-84
2023/12/13 14:08:25;;;;;;;0.10;0.10;;;;;;;34.54;65.07;99769.31;10446646;28;20040;-84
2023/12/13 14:13:27;;;;;;;0.00;0.00;;;;;;;35.71;62.08;99782.25;10447721;28;20457;-84
2023/12/13 14:18:29;;;;;;;0.00;0.00;;;;;;;34.43;64.56;99783.69;10455984;28;20052;-85
2023/12/13 14:23:31;;;;;;;0.20;0.10;;;;;;;35.60;62.55;99786.97;10458883;28;20114;-83
2023/12/13 14:28:33;;;;;;;0.10;0.10;;;;;;;35.87;61.57;99794.97;10457801;28;20040;-85
2023/12/13 14:33:35;;;;;;;0.30;0.22;;;;;;;34.55;63.12;99800.41;10425777;28;20055;-85
2023/12/13 14:38:37;;;;;;;0.00;0.00;;;;;;;35.14;61.48;99808.31;10423550;28;20427;-85
2023/12/13 14:43:39;;;;;;;0.05;0.03;;;;;;;34.77;62.22;99810.78;10438814;28;20044;-86
2023/12/13 14:48:41;;;;;;;0.10;0.10;;;;;;;36.83;59.82;99816.75;10444518;28;20051;-85
2023/12/13 14:53:45;;;;;;;0.00;0.00;;;;;;;35.81;60.13;99830.44;10443339;28;20044;-86
2023/12/13 14:58:46;;;;;;;0.10;0.05;;;;;;;35.18;60.69;99828.47;10465745;28;20079;-85
2023/12/13 15:03:49;;;;;;;0.20;0.20;;;;;;;34.89;61.18;99840.06;10438595;28;20071;-85
2023/12/13 15:08:51;;;;;;;0.15;0.15;;;;;;;34.91;61.93;99843.44;10440117;28;20431;-85
2023/12/13 15:13:54;;;;;;;0.80;0.50;;;;;;;34.63;61.21;99857.53;10438318;28;20072;-86
2023/12/13 15:18:56;;;;;;;0.00;0.00;;;;;;;32.74;63.82;99865.97;10447358;28;20098;-86
2023/12/13 15:23:58;;;;;;;0.10;0.10;;;;;;;33.44;63.98;99865.44;10453948;28;20041;-86
2023/12/13 15:29:01;;;;;;;0.17;0.17;;;;;;;34.66;61.82;99885.84;10440085;28;20067;-85
2023/12/13 15:34:03;;;;;;;0.20;0.20;;;;;;;34.53;61.73;99887.94;10465534;28;20075;-86
2023/12/13 15:39:05;;;;;;;0.00;0.00;;;;;;;34.74;61.46;99888.63;10446886;28;20037;-85
2023/12/13 15:44:07;;;;;;;0.00;0.00;;;;;;;33.01;62.87;99891.31;10448329;28;20048;-85
2023/12/13 15:49:10;;;;;;;0.00;0.00;;;;;;;31.20;65.95;99903.09;10446665;28;20073;-85
2023/12/13 15:54:12;;;;;;;0.00;0.00;;;;;;;31.60;65.96;99910.66;10445514;28;20045;-84
2023/12/13 15:59:14;;;;;;;0.00;0.00;;;;;;;32.09;64.60;99910.38;10434533;28;20083;-84
2023/12/13 16:04:16;;;;;;;0.52;0.20;;;;;;;31.14;66.57;99920.38;10453477;28;20071;-87
2023/12/13 16:09:18;;;;;;;0.03;0.03;;;;;;;31.32;66.38;99920.75;10446556;28;20796;-85
2023/12/13 16:14:21;;;;;;;0.00;0.00;;;;;;;33.53;63.84;99928.72;10452481;28;20048;-85
2023/12/13 16:19:22;;;;;;;0.10;0.10;;;;;;;34.52;60.53;99945.09;10461518;28;20040;-85
2023/12/13 16:24:24;;;;;;;0.32;0.20;;;;;;;34.44;61.36;99949.28;10484119;28;20040;-85
2023/12/13 16:29:26;;;;;;;0.00;0.00;;;;;;;36.55;58.60;99948.34;10464372;28;20068;-85
2023/12/13 16:34:31;;;;;;;0.00;0.00;;;;;;;34.77;60.78;99955.25;10452211;28;20434;-85
2023/12/13 16:39:33;;;;;;;0.10;0.10;;;;;;;35.44;59.03;99961.69;10456769;28;20166;-85
2023/12/13 16:44:35;;;;;;;0.00;0.00;;;;;;;30.68;66.27;99993.78;10454667;28;20049;-85
2023/12/13 16:49:37;;;;;;;0.28;0.28;;;;;;;35.15;60.43;99983.97;10441413;28;20132;-84
2023/12/13 16:54:41;;;;;;;0.00;0.00;;;;;;;33.98;60.94;99993.47;10441078;28;20045;-84
2023/12/13 16:59:43;;;;;;;0.35;0.20;;;;;;;34.36;60.69;100005.28;10454932;28;20045;-85
2023/12/13 17:04:45;;;;;;;0.20;0.20;;;;;;;34.34;60.77;100004.56;10442397;28;20458;-84
2023/12/13 17:09:47;;;;;;;0.70;0.55;;;;;;;35.33;59.48;100013.56;10431539;28;20468;-84
2023/12/13 17:14:48;;;;;;;0.28;0.13;;;;;;;34.16;59.76;100025.75;10447360;28;20071;-84
2023/12/13 17:19:51;;;;;;;1.75;0.32;;;;;;;35.69;58.95;100029.84;10441623;28;20045;-84
2023/12/13 17:24:53;;;;;;;0.95;0.60;;;;;;;36.50;57.76;100033.81;10430833;28;20036;-85
2023/12/13 17:29:55;;;;;;;0.32;0.28;;;;;;;34.86;58.56;100059.72;10442167;28;20487;-85
2023/12/13 17:34:58;;;;;;;0.00;0.00;;;;;;;36.43;56.98;100059.53;10437213;28;20057;-85
2023/12/13 17:40:00;;;;;;;0.10;0.00;;;;;;;34.27;59.01;100073.75;10454846;28;20033;-84
2023/12/13 17:45:03;;;;;;;0.10;0.10;;;;;;;35.11;58.45;100091.31;10449813;28;20044;-84
2023/12/13 17:50:06;;;;;;;0.00;0.00;;;;;;;32.52;61.77;100090.84;10462639;28;20036;-83
2023/12/13 17:55:16;;;;;;;0.00;0.00;;;;;;;31.90;62.29;100093.00;10449049;28;20166;-84
2023/12/13 18:00:18;;;;;;;0.00;0.00;;;;;;;31.25;64.57;100108.44;10435556;28;20068;-83
2023/12/13 18:05:20;;;;;;;1.45;0.10;;;;;;;32.04;63.87;100110.53;10453755;28;20098;-84
2023/12/13 18:10:22;;;;;;;0.00;0.00;;;;;;;32.48;62.75;100117.88;10447207;28;20154;-84
2023/12/13 18:15:25;;;;;;;0.05;0.00;;;;;;;31.10;65.55;100137.03;10453810;28;20053;-84
2023/12/13 18:20:27;;;;;;;0.30;0.10;;;;;;;32.24;65.20;100133.00;10460399;28;20087;-84
2023/12/13 18:25:28;;;;;;;0.30;0.20;;;;;;;30.58;67.82;100146.91;10449263;28;20141;-84
2023/12/13 18:30:30;;;;;;;0.10;0.10;;;;;;;30.56;68.19;100148.84;10450391;28;20087;-83
2023/12/13 18:35:32;;;;;;;0.88;0.73;;;;;;;28.49;72.17;100158.63;10467135;28;20063;-84
2023/12/13 18:40:34;;;;;;;4.75;2.50;;;;;;;28.67;73.03;100165.56;10463892;28;20123;-84
2023/12/13 18:45:36;;;;;;;1.02;0.57;;;;;;;29.06;71.74;100182.56;10454567;28;20087;-83
2023/12/13 18:50:38;;;;;;;1.20;1.02;;;;;;;29.64;71.82;100182.47;10452570;28;20041;-83
2023/12/13 18:55:39;;;;;;;0.38;0.38;;;;;;;27.46;75.51;100194.59;10457622;28;20045;-83
2023/12/13 19:00:41;;;;;;;1.92;1.08;;;;;;;28.62;73.05;100200.28;10454272;28;20102;-83
2023/12/13 19:05:48;;;;;;;1.20;0.73;;;;;;;28.12;74.45;100213.81;10434463;28;20170;-83
2023/12/13 19:10:50;;;;;;;1.70;1.13;;;;;;;28.95;74.36;100218.59;10456511;28;20041;-83
2023/12/13 19:15:51;;;;;;;1.75;0.85;;;;;;;28.72;74.71;100216.50;10459143;28;20500;-84
2023/12/13 19:20:55;;;;;;;5.78;1.63;;;;;;;27.92;75.83;100237.91;10450584;28;20049;-83
2023/12/13 19:25:57;;;;;;;5.65;1.10;;;;;;;27.86;76.38;100234.69;10452153;28;20044;-83
2023/12/13 19:30:59;;;;;;;1.20;0.90;;;;;;;28.56;76.33;100249.19;10453177;28;20044;-84
2023/12/13 19:36:01;;;;;;;2.22;1.08;;;;;;;28.55;75.86;100254.59;10436615;28;20140;-84
2023/12/13 19:41:03;;;;;;;2.47;1.30;;;;;;;27.07;77.63;100269.84;10453119;28;20076;-84
2023/12/13 19:46:05;;;;;;;0.88;0.82;;;;;;;27.99;76.29;100277.19;10452375;28;20051;-83
2023/12/13 19:51:07;;;;;;;3.35;1.33;;;;;;;26.57;80.60;100285.59;10457409;28;20065;-82
2023/12/13 19:56:09;;;;;;;1.55;1.10;;;;;;;24.59;87.08;100305.22;10429154;28;20053;-82
2023/12/13 20:01:13;;;;;;;1.25;1.15;;;;;;;24.75;86.69;100320.41;10445964;28;20037;-82
2023/12/13 20:06:17;;;;;;;1.83;1.30;;;;;;;24.65;86.67;100323.41;10439091;28;20104;-82
2023/12/13 20:11:19;;;;;;;5.57;1.58;;;;;;;26.11;83.78;100325.72;10459711;28;20037;-83
2023/12/13 20:16:21;;;;;;;1.88;0.90;;;;;;;23.48;90.56;100341.16;10439719;28;20412;-82
2023/12/13 20:21:23;;;;;;;1.33;0.98;;;;;;;24.56;85.90;100358.00;10446103;28;20128;-82
2023/12/13 20:26:25;;;;;;;1.42;0.88;;;;;;;24.42;87.11;100355.97;10440279;28;20504;-82
2023/12/13 20:31:26;;;;;;;1.98;1.05;;;;;;;25.71;83.93;100355.75;10461024;28;20036;-83
2023/12/13 20:36:28;;;;;;;1.33;1.02;;;;;;;24.15;87.56;100373.72;10461465;28;20037;-82
2023/12/13 20:41:30;;;;;;;1.77;1.38;;;;;;;24.83;86.51;100381.53;10441966;28;20746;-82
2023/12/13 20:46:32;;;;;;;2.13;0.82;;;;;;;24.33;88.17;100393.19;10460827;28;20052;-83
2023/12/13 20:51:34;;;;;;;0.65;0.30;;;;;;;22.36;93.73;100394.75;10491201;28;20080;-82
2023/12/13 20:56:36;;;;;;;0.93;0.63;;;;;;;26.29;83.41;100402.31;10448810;28;20071;-83
2023/12/13 21:01:38;;;;;;;1.00;0.88;;;;;;;24.29;86.95;100418.78;10456308;28;20072;-83
2023/12/13 21:06:40;;;;;;;1.27;0.52;;;;;;;25.43;85.00;100430.84;10471513;28;20076;-83
2023/12/13 21:11:42;;;;;;;1.60;0.73;;;;;;;24.66;86.07;100443.66;10459218;28;20029;-83
2023/12/13 21:16:44;;;;;;;0.90;0.90;;;;;;;24.05;87.30;100447.75;10455967;28;20080;-82
2023/12/13 21:21:46;;;;;;;1.23;0.95;;;;;;;25.17;85.72;100454.72;10441214;28;20045;-83
2023/12/13 21:26:48;;;;;;;1.65;1.10;;;;;;;23.37;88.75;100458.03;10464695;28;20067;-82
2023/12/13 21:31:50;;;;;;;0.82;0.57;;;;;;;24.38;85.91;100476.34;10457332;28;20065;-83
2023/12/13 21:36:53;;;;;;;0.20;0.20;;;;;;;25.58;83.01;100485.53;10440148;28;20043;-83
2023/12/13 21:41:54;;;;;;;0.45;0.45;;;;;;;23.67;86.02;100488.56;10457427;28;20052;-82
2023/12/13 21:46:56;;;;;;;0.82;0.82;;;;;;;25.00;85.02;100500.25;10457706;28;20044;-83
2023/12/13 21:51:58;;;;;;;1.77;1.23;;;;;;;25.03;81.84;100515.94;10463116;28;20044;-83
2023/12/13 21:57:00;;;;;;;3.40;1.33;;;;;;;25.15;83.90;100524.25;10455336;28;20072;-82
2023/12/13 22:02:02;;;;;;;0.52;0.52;;;;;;;25.22;83.59;100530.13;10450316;28;20136;-82
2023/12/13 22:07:03;;;;;;;0.43;0.40;;;;;;;23.81;86.25;100532.78;10449961;28;20053;-82
2023/12/13 22:12:06;;;;;;;1.55;1.02;;;;;;;23.01;88.40;100550.28;10455921;28;20127;-82
2023/12/13 22:17:08;;;;;;;1.35;1.08;;;;;;;25.03;82.61;100563.38;10464260;28;20139;-82
2023/12/13 22:22:10;;;;;;;2.17;1.17;;;;;;;23.67;83.40;100578.00;10466791;28;20045;-82
2023/12/13 22:27:12;;;;;;;1.65;1.40;;;;;;;24.51;82.12;100587.28;10461601;28;20075;-82
2023/12/13 22:32:14;;;;;;;0.85;0.77;;;;;;;22.77;87.45;100597.41;10451714;28;20391;-82
2023/12/13 22:37:16;;;;;;;1.65;0.88;;;;;;;23.47;85.86;100599.69;10456618;28;20049;-82
2023/12/13 22:42:18;;;;;;;1.85;0.95;;;;;;;23.84;84.29;100606.34;10460855;28;20503;-82
2023/12/13 22:47:20;;;;;;;1.38;1.23;;;;;;;23.89;83.60;100625.44;10454766;28;20461;-82
2023/12/13 22:52:23;;;;;;;0.40;0.40;;;;;;;24.34;82.01;100632.66;10453886;28;20037;-82
2023/12/13 22:57:25;;;;;;;3.70;1.27;;;;;;;23.56;84.24;100625.69;10453253;28;20048;-82
2023/12/13 23:02:27;;;;;;;0.65;0.32;;;;;;;23.51;85.62;100638.09;10435668;28;20041;-82
2023/12/13 23:07:30;;;;;;;3.00;0.85;;;;;;;23.76;83.99;100649.53;10452246;28;20099;-82
2023/12/13 23:12:32;;;;;;;3.05;1.40;;;;;;;23.68;81.63;100664.72;10454410;28;20132;-82
2023/12/13 23:17:35;;;;;;;1.48;1.17;;;;;;;21.98;83.68;100674.78;10453266;28;20139;-82